sensor_id;sensor_type;location;lat;lon;timestamp;pressure;altitude;pressure_sealevel;temperature;humidity
62402;BME280;48440;51.224;22.506;2023-02-01T00:01:18;98105.88;;;0.91;85.58
62402;BME280;48440;51.224;22.506;2023-02-01T00:03:44;98102.75;;;0.94;84.98
62402;BME280;48440;51.224;22.506;2023-02-01T00:06:09;98099.28;;;0.94;85.27
62402;BME280;48440;51.224;22.506;2023-02-01T00:08:35;98085.91;;;0.94;85.02
62402;BME280;48440;51.224;22.506;2023-02-01T00:11:03;98090.06;;;0.90;85.66
62402;BME280;48440;51.224;22.506;2023-02-01T00:13:30;98094.22;;;0.86;85.91
62402;BME280;48440;51.224;22.506;2023-02-01T00:16:12;98079.59;;;0.88;86.01
62402;BME280;48440;51.224;22.506;2023-02-01T00:18:38;98084.28;;;0.93;85.36
62402;BME280;48440;51.224;22.506;2023-02-01T00:21:04;98083.91;;;0.89;85.03
62402;BME280;48440;51.224;22.506;2023-02-01T00:23:34;98069.50;;;0.90;85.42
62402;BME280;48440;51.224;22.506;2023-02-01T00:26:01;98077.59;;;0.84;85.95
62402;BME280;48440;51.224;22.506;2023-02-01T00:28:27;98057.63;;;0.86;85.84
62402;BME280;48440;51.224;22.506;2023-02-01T00:30:59;98056.16;;;0.90;85.52
62402;BME280;48440;51.224;22.506;2023-02-01T00:33:25;98055.09;;;0.91;85.40
62402;BME280;48440;51.224;22.506;2023-02-01T00:35:51;98046.06;;;0.92;85.57
62402;BME280;48440;51.224;22.506;2023-02-01T00:38:16;98040.44;;;1.00;84.83
62402;BME280;48440;51.224;22.506;2023-02-01T00:40:42;98032.41;;;1.00;85.12
62402;BME280;48440;51.224;22.506;2023-02-01T00:43:07;98024.50;;;1.06;84.71
62402;BME280;48440;51.224;22.506;2023-02-01T00:45:32;98034.75;;;1.09;84.64
62402;BME280;48440;51.224;22.506;2023-02-01T00:47:58;98027.94;;;1.13;84.58
62402;BME280;48440;51.224;22.506;2023-02-01T00:50:23;98020.94;;;1.12;84.32
62402;BME280;48440;51.224;22.506;2023-02-01T00:52:49;98019.69;;;1.14;84.45
62402;BME280;48440;51.224;22.506;2023-02-01T00:55:14;98016.19;;;1.14;84.67
62402;BME280;48440;51.224;22.506;2023-02-01T00:57:39;98013.09;;;1.17;84.30
62402;BME280;48440;51.224;22.506;2023-02-01T01:00:05;98007.97;;;1.15;84.21
62402;BME280;48440;51.224;22.506;2023-02-01T01:02:31;98013.31;;;1.15;84.88
62402;BME280;48440;51.224;22.506;2023-02-01T01:04:56;98006.31;;;1.14;84.90
62402;BME280;48440;51.224;22.506;2023-02-01T01:07:22;98004.03;;;1.18;84.95
62402;BME280;48440;51.224;22.506;2023-02-01T01:09:47;98002.16;;;1.18;84.65
62402;BME280;48440;51.224;22.506;2023-02-01T01:12:13;97988.59;;;1.20;84.70
62402;BME280;48440;51.224;22.506;2023-02-01T01:14:38;97992.06;;;1.20;84.81
62402;BME280;48440;51.224;22.506;2023-02-01T01:17:04;97985.69;;;1.21;84.76
62402;BME280;48440;51.224;22.506;2023-02-01T01:19:29;97988.34;;;1.21;84.57
62402;BME280;48440;51.224;22.506;2023-02-01T01:21:55;97983.59;;;1.23;84.33
62402;BME280;48440;51.224;22.506;2023-02-01T01:24:20;97987.31;;;1.22;84.20
62402;BME280;48440;51.224;22.506;2023-02-01T01:26:45;97989.16;;;1.22;84.61
62402;BME280;48440;51.224;22.506;2023-02-01T01:29:11;97987.31;;;1.22;84.51
62402;BME280;48440;51.224;22.506;2023-02-01T01:31:36;97984.41;;;1.24;84.51
62402;BME280;48440;51.224;22.506;2023-02-01T01:34:02;97982.94;;;1.28;84.69
62402;BME280;48440;51.224;22.506;2023-02-01T01:36:27;97980.94;;;1.23;84.62
62402;BME280;48440;51.224;22.506;2023-02-01T01:38:53;97982.19;;;1.21;84.63
62402;BME280;48440;51.224;22.506;2023-02-01T01:41:24;97978.72;;;1.20;84.98
62402;BME280;48440;51.224;22.506;2023-02-01T01:43:59;97973.81;;;1.17;85.00
62402;BME280;48440;51.224;22.506;2023-02-01T01:46:31;97980.19;;;1.16;84.77
62402;BME280;48440;51.224;22.506;2023-02-01T01:51:24;97990.00;;;1.22;84.86
62402;BME280;48440;51.224;22.506;2023-02-01T01:54:07;97975.59;;;1.23;85.07
62402;BME280;48440;51.224;22.506;2023-02-01T01:56:34;97979.88;;;1.24;85.03
62402;BME280;48440;51.224;22.506;2023-02-01T01:59:00;97981.63;;;1.30;84.55
62402;BME280;48440;51.224;22.506;2023-02-01T02:01:26;97983.50;;;1.30;84.58
62402;BME280;48440;51.224;22.506;2023-02-01T02:03:53;97988.38;;;1.33;84.79
62402;BME280;48440;51.224;22.506;2023-02-01T02:06:45;97992.47;;;1.35;84.89
62402;BME280;48440;51.224;22.506;2023-02-01T02:09:13;97986.66;;;1.39;84.46
62402;BME280;48440;51.224;22.506;2023-02-01T02:11:38;97988.31;;;1.40;84.54
62402;BME280;48440;51.224;22.506;2023-02-01T02:14:05;97984.22;;;1.37;84.81
62402;BME280;48440;51.224;22.506;2023-02-01T02:38:10;97990.56;;;1.54;84.36
62402;BME280;48440;51.224;22.506;2023-02-01T02:43:22;97986.25;;;1.53;84.73
62402;BME280;48440;51.224;22.506;2023-02-01T02:46:24;97999.16;;;1.56;84.37
62402;BME280;48440;51.224;22.506;2023-02-01T02:49:20;97995.22;;;1.59;84.16
62402;BME280;48440;51.224;22.506;2023-02-01T02:52:05;98001.97;;;1.61;84.43
62402;BME280;48440;51.224;22.506;2023-02-01T02:54:54;98000.91;;;1.62;84.01
62402;BME280;48440;51.224;22.506;2023-02-01T02:57:36;98013.00;;;1.65;84.31
62402;BME280;48440;51.224;22.506;2023-02-01T03:00:28;98020.69;;;1.61;84.16
62402;BME280;48440;51.224;22.506;2023-02-01T03:03:13;98017.41;;;1.59;84.36
62402;BME280;48440;51.224;22.506;2023-02-01T03:05:57;98027.88;;;1.61;84.54
62402;BME280;48440;51.224;22.506;2023-02-01T03:08:24;98033.81;;;1.63;84.26
62402;BME280;48440;51.224;22.506;2023-02-01T03:11:07;98039.41;;;1.61;83.71
62402;BME280;48440;51.224;22.506;2023-02-01T03:13:55;98031.16;;;1.63;84.24
62402;BME280;48440;51.224;22.506;2023-02-01T03:16:23;98038.34;;;1.62;83.93
62402;BME280;48440;51.224;22.506;2023-02-01T03:19:15;98043.72;;;1.62;84.23
62402;BME280;48440;51.224;22.506;2023-02-01T03:21:49;98046.38;;;1.62;84.17
62402;BME280;48440;51.224;22.506;2023-02-01T03:24:20;98044.75;;;1.61;83.83
62402;BME280;48440;51.224;22.506;2023-02-01T03:26:55;98037.53;;;1.62;83.93
62402;BME280;48440;51.224;22.506;2023-02-01T03:29:27;98047.88;;;1.58;83.85
62402;BME280;48440;51.224;22.506;2023-02-01T03:31:55;98049.72;;;1.58;84.36
62402;BME280;48440;51.224;22.506;2023-02-01T03:34:21;98052.41;;;1.58;84.28
62402;BME280;48440;51.224;22.506;2023-02-01T03:36:54;98050.53;;;1.58;84.13
62402;BME280;48440;51.224;22.506;2023-02-01T03:39:31;98051.94;;;1.61;83.95
62402;BME280;48440;51.224;22.506;2023-02-01T03:42:04;98041.25;;;1.61;84.28
62402;BME280;48440;51.224;22.506;2023-02-01T03:44:48;98037.19;;;1.58;83.82
62402;BME280;48440;51.224;22.506;2023-02-01T03:47:20;98038.59;;;1.61;83.95
62402;BME280;48440;51.224;22.506;2023-02-01T03:49:50;98042.88;;;1.62;83.79
62402;BME280;48440;51.224;22.506;2023-02-01T03:52:33;98054.63;;;1.61;83.67
62402;BME280;48440;51.224;22.506;2023-02-01T03:55:01;98057.31;;;1.61;83.51
62402;BME280;48440;51.224;22.506;2023-02-01T03:57:30;98057.31;;;1.61;83.48
62402;BME280;48440;51.224;22.506;2023-02-01T04:00:08;98050.22;;;1.55;83.56
62402;BME280;48440;51.224;22.506;2023-02-01T04:02:35;98052.06;;;1.54;83.45
62402;BME280;48440;51.224;22.506;2023-02-01T04:05:00;98049.03;;;1.51;83.83
62402;BME280;48440;51.224;22.506;2023-02-01T04:07:26;98046.34;;;1.51;83.65
62402;BME280;48440;51.224;22.506;2023-02-01T04:09:51;98056.13;;;1.57;83.04
62402;BME280;48440;51.224;22.506;2023-02-01T04:12:16;98073.78;;;1.58;82.70
62402;BME280;48440;51.224;22.506;2023-02-01T04:14:42;98076.25;;;1.59;82.45
62402;BME280;48440;51.224;22.506;2023-02-01T04:17:07;98074.38;;;1.60;82.70
62402;BME280;48440;51.224;22.506;2023-02-01T04:19:33;98069.03;;;1.60;82.49
62402;BME280;48440;51.224;22.506;2023-02-01T04:21:58;98072.53;;;1.60;82.49
62402;BME280;48440;51.224;22.506;2023-02-01T04:24:24;98068.81;;;1.61;82.22
62402;BME280;48440;51.224;22.506;2023-02-01T04:26:49;98071.50;;;1.61;82.35
62402;BME280;48440;51.224;22.506;2023-02-01T04:29:15;98072.53;;;1.60;82.69
62402;BME280;48440;51.224;22.506;2023-02-01T04:31:40;98078.69;;;1.61;82.59
62402;BME280;48440;51.224;22.506;2023-02-01T04:34:06;98077.66;;;1.62;82.37
62402;BME280;48440;51.224;22.506;2023-02-01T04:36:31;98086.28;;;1.64;82.60
62402;BME280;48440;51.224;22.506;2023-02-01T04:38:57;98084.63;;;1.63;82.65
62402;BME280;48440;51.224;22.506;2023-02-01T04:41:22;98091.03;;;1.62;82.26
62402;BME280;48440;51.224;22.506;2023-02-01T04:43:49;98083.81;;;1.62;82.15
62402;BME280;48440;51.224;22.506;2023-02-01T04:46:15;98091.03;;;1.62;82.83
62402;BME280;48440;51.224;22.506;2023-02-01T04:48:41;98094.50;;;1.62;82.26
62402;BME280;48440;51.224;22.506;2023-02-01T04:51:07;98087.53;;;1.61;81.42
62402;BME280;48440;51.224;22.506;2023-02-01T04:53:32;98084.03;;;1.61;81.78
62402;BME280;48440;51.224;22.506;2023-02-01T04:55:58;98105.22;;;1.62;81.88
62402;BME280;48440;51.224;22.506;2023-02-01T04:58:23;98099.03;;;1.62;81.69
62402;BME280;48440;51.224;22.506;2023-02-01T05:00:49;98100.91;;;1.61;81.99
62402;BME280;48440;51.224;22.506;2023-02-01T05:03:15;98094.28;;;1.64;81.72
62402;BME280;48440;51.224;22.506;2023-02-01T05:05:40;98095.09;;;1.64;81.17
62402;BME280;48440;51.224;22.506;2023-02-01T05:08:06;98103.13;;;1.64;81.44
62402;BME280;48440;51.224;22.506;2023-02-01T05:10:31;98109.28;;;1.65;81.16
62402;BME280;48440;51.224;22.506;2023-02-01T05:12:57;98109.44;;;1.70;80.82
62402;BME280;48440;51.224;22.506;2023-02-01T05:15:41;98114.19;;;1.68;80.77
62402;BME280;48440;51.224;22.506;2023-02-01T05:18:06;98114.19;;;1.68;81.19
62402;BME280;48440;51.224;22.506;2023-02-01T05:20:32;98108.84;;;1.68;81.12
62402;BME280;48440;51.224;22.506;2023-02-01T05:22:57;98116.66;;;1.69;80.91
62402;BME280;48440;51.224;22.506;2023-02-01T05:25:23;98107.00;;;1.68;80.63
62402;BME280;48440;51.224;22.506;2023-02-01T05:27:48;98113.59;;;1.66;81.06
62402;BME280;48440;51.224;22.506;2023-02-01T05:30:14;98109.06;;;1.66;80.93
62402;BME280;48440;51.224;22.506;2023-02-01T05:32:39;98118.72;;;1.67;80.76
62402;BME280;48440;51.224;22.506;2023-02-01T05:35:05;98115.25;;;1.67;81.07
62402;BME280;48440;51.224;22.506;2023-02-01T05:37:31;98114.41;;;1.66;81.05
62402;BME280;48440;51.224;22.506;2023-02-01T05:39:56;98118.97;;;1.66;81.22
62402;BME280;48440;51.224;22.506;2023-02-01T05:42:22;98109.66;;;1.68;80.99
62402;BME280;48440;51.224;22.506;2023-02-01T05:44:47;98118.72;;;1.67;80.82
62402;BME280;48440;51.224;22.506;2023-02-01T05:47:13;98115.25;;;1.67;81.03
62402;BME280;48440;51.224;22.506;2023-02-01T05:49:38;98124.06;;;1.67;80.69
62402;BME280;48440;51.224;22.506;2023-02-01T05:52:04;98122.22;;;1.68;80.34
62402;BME280;48440;51.224;22.506;2023-02-01T05:54:29;98116.50;;;1.64;80.63
62402;BME280;48440;51.224;22.506;2023-02-01T05:56:55;98129.66;;;1.66;80.85
62402;BME280;48440;51.224;22.506;2023-02-01T05:59:20;98133.16;;;1.66;80.79
62402;BME280;48440;51.224;22.506;2023-02-01T06:01:46;98128.84;;;1.65;80.89
62402;BME280;48440;51.224;22.506;2023-02-01T06:04:11;98138.50;;;1.66;80.60
62402;BME280;48440;51.224;22.506;2023-02-01T06:06:37;98131.88;;;1.69;80.43
62402;BME280;48440;51.224;22.506;2023-02-01T06:09:03;98130.84;;;1.70;80.09
62402;BME280;48440;51.224;22.506;2023-02-01T06:11:29;98136.41;;;1.68;79.91
62402;BME280;48440;51.224;22.506;2023-02-01T06:13:55;98134.56;;;1.69;79.69
62402;BME280;48440;51.224;22.506;2023-02-01T06:16:21;98142.34;;;1.70;79.93
62402;BME280;48440;51.224;22.506;2023-02-01T06:18:47;98141.31;;;1.72;79.76
62402;BME280;48440;51.224;22.506;2023-02-01T06:21:13;98145.03;;;1.70;79.78
62402;BME280;48440;51.224;22.506;2023-02-01T06:23:54;98142.13;;;1.72;79.82
62402;BME280;48440;51.224;22.506;2023-02-01T06:26:22;98143.91;;;1.78;79.04
62402;BME280;48440;51.224;22.506;2023-02-01T06:28:48;98131.34;;;1.79;79.40
62402;BME280;48440;51.224;22.506;2023-02-01T06:31:14;98138.78;;;1.77;79.27
62402;BME280;48440;51.224;22.506;2023-02-01T06:33:39;98145.53;;;1.79;79.51
62402;BME280;48440;51.224;22.506;2023-02-01T06:36:07;98139.38;;;1.79;79.48
62402;BME280;48440;51.224;22.506;2023-02-01T06:38:33;98151.72;;;1.80;79.47
62402;BME280;48440;51.224;22.506;2023-02-01T06:41:02;98152.53;;;1.80;79.16
62402;BME280;48440;51.224;22.506;2023-02-01T06:43:28;98141.81;;;1.80;78.98
62402;BME280;48440;51.224;22.506;2023-02-01T06:45:58;98154.38;;;1.80;78.66
62402;BME280;48440;51.224;22.506;2023-02-01T06:48:24;98154.16;;;1.81;78.73
62402;BME280;48440;51.224;22.506;2023-02-01T06:50:49;98154.72;;;1.83;79.06
62402;BME280;48440;51.224;22.506;2023-02-01T06:53:15;98147.06;;;1.87;78.71
62402;BME280;48440;51.224;22.506;2023-02-01T06:55:40;98145.56;;;1.91;78.21
62402;BME280;48440;51.224;22.506;2023-02-01T06:58:06;98144.75;;;1.90;78.38
62402;BME280;48440;51.224;22.506;2023-02-01T07:00:31;98143.94;;;1.90;78.60
62402;BME280;48440;51.224;22.506;2023-02-01T07:02:57;98149.06;;;1.91;78.41
62402;BME280;48440;51.224;22.506;2023-02-01T07:05:23;98142.44;;;1.94;78.22
62402;BME280;48440;51.224;22.506;2023-02-01T07:07:48;98133.97;;;1.97;78.35
62402;BME280;48440;51.224;22.506;2023-02-01T07:10:14;98146.22;;;2.04;77.98
62402;BME280;48440;51.224;22.506;2023-02-01T07:12:39;98145.06;;;2.12;77.70
62402;BME280;48440;51.224;22.506;2023-02-01T07:15:06;98153.44;;;2.16;77.77
62402;BME280;48440;51.224;22.506;2023-02-01T07:17:31;98142.75;;;2.16;77.54
62402;BME280;48440;51.224;22.506;2023-02-01T07:19:57;98146.25;;;2.16;77.33
62402;BME280;48440;51.224;22.506;2023-02-01T07:22:25;98147.50;;;2.14;76.56
62402;BME280;48440;51.224;22.506;2023-02-01T07:24:50;98144.25;;;2.12;76.63
62402;BME280;48440;51.224;22.506;2023-02-01T07:27:16;98139.47;;;2.14;76.75
62402;BME280;48440;51.224;22.506;2023-02-01T07:29:41;98146.00;;;2.18;76.55
62402;BME280;48440;51.224;22.506;2023-02-01T07:32:07;98150.78;;;2.16;76.34
62402;BME280;48440;51.224;22.506;2023-02-01T07:34:32;98142.06;;;2.20;76.45
62402;BME280;48440;51.224;22.506;2023-02-01T07:36:59;98145.91;;;2.24;76.09
62402;BME280;48440;51.224;22.506;2023-02-01T07:39:24;98152.44;;;2.28;75.46
62402;BME280;48440;51.224;22.506;2023-02-01T07:41:53;98153.50;;;2.27;75.60
62402;BME280;48440;51.224;22.506;2023-02-01T07:44:19;98158.97;;;2.32;75.63
62402;BME280;48440;51.224;22.506;2023-02-01T07:46:48;98147.56;;;2.37;75.23
62402;BME280;48440;51.224;22.506;2023-02-01T07:49:13;98152.09;;;2.36;74.71
62402;BME280;48440;51.224;22.506;2023-02-01T07:51:39;98152.47;;;2.40;74.85
62402;BME280;48440;51.224;22.506;2023-02-01T07:54:04;98144.44;;;2.40;74.70
62402;BME280;48440;51.224;22.506;2023-02-01T07:56:30;98141.28;;;2.43;74.55
62402;BME280;48440;51.224;22.506;2023-02-01T07:58:55;98130.13;;;2.46;74.42
62402;BME280;48440;51.224;22.506;2023-02-01T08:01:25;98138.38;;;2.45;74.19
62402;BME280;48440;51.224;22.506;2023-02-01T08:04:00;98139.78;;;2.47;74.81
62402;BME280;48440;51.224;22.506;2023-02-01T08:06:27;98132.34;;;2.49;74.44
62402;BME280;48440;51.224;22.506;2023-02-01T08:08:53;98133.63;;;2.47;74.13
62402;BME280;48440;51.224;22.506;2023-02-01T08:11:20;98132.94;;;2.51;74.21
62402;BME280;48440;51.224;22.506;2023-02-01T08:13:45;98138.41;;;2.56;73.81
62402;BME280;48440;51.224;22.506;2023-02-01T08:16:12;98133.75;;;2.63;73.69
62402;BME280;48440;51.224;22.506;2023-02-01T08:18:38;98134.59;;;2.76;73.26
62402;BME280;48440;51.224;22.506;2023-02-01T08:21:05;98128.88;;;2.84;72.82
62402;BME280;48440;51.224;22.506;2023-02-01T08:23:32;98139.59;;;2.95;72.87
62402;BME280;48440;51.224;22.506;2023-02-01T08:26:13;98131.16;;;3.27;71.90
62402;BME280;48440;51.224;22.506;2023-02-01T08:28:45;98131.81;;;3.46;70.57
62402;BME280;48440;51.224;22.506;2023-02-01T08:31:13;98133.34;;;4.10;68.94
62402;BME280;48440;51.224;22.506;2023-02-01T08:33:48;98135.56;;;4.47;66.96
62402;BME280;48440;51.224;22.506;2023-02-01T08:36:14;98138.31;;;4.18;67.21
62402;BME280;48440;51.224;22.506;2023-02-01T08:38:40;98137.25;;;3.91;69.04
62402;BME280;48440;51.224;22.506;2023-02-01T08:41:14;98141.00;;;3.61;70.92
62402;BME280;48440;51.224;22.506;2023-02-01T08:43:40;98150.81;;;3.44;69.68
62402;BME280;48440;51.224;22.506;2023-02-01T08:46:07;98154.94;;;3.23;70.40
62402;BME280;48440;51.224;22.506;2023-02-01T08:48:34;98155.06;;;3.17;70.86
62402;BME280;48440;51.224;22.506;2023-02-01T08:51:09;98164.06;;;3.11;70.92
62402;BME280;48440;51.224;22.506;2023-02-01T08:53:36;98160.22;;;3.06;71.23
62402;BME280;48440;51.224;22.506;2023-02-01T08:56:03;98164.53;;;2.96;70.94
62402;BME280;48440;51.224;22.506;2023-02-01T08:58:28;98160.53;;;2.87;71.17
62402;BME280;48440;51.224;22.506;2023-02-01T09:00:54;98156.25;;;2.86;71.12
62402;BME280;48440;51.224;22.506;2023-02-01T09:03:20;98153.69;;;2.79;71.50
62402;BME280;48440;51.224;22.506;2023-02-01T09:05:45;98160.09;;;2.78;71.50
62402;BME280;48440;51.224;22.506;2023-02-01T09:08:11;98146.47;;;2.80;71.66
62402;BME280;48440;51.224;22.506;2023-02-01T09:10:41;98147.28;;;2.80;71.91
62402;BME280;48440;51.224;22.506;2023-02-01T09:13:08;98136.34;;;2.82;71.51
62402;BME280;48440;51.224;22.506;2023-02-01T09:15:35;98139.69;;;2.89;71.70
62402;BME280;48440;51.224;22.506;2023-02-01T09:18:01;98145.53;;;2.97;71.20
62402;BME280;48440;51.224;22.506;2023-02-01T09:20:27;98150.78;;;3.04;70.87
62402;BME280;48440;51.224;22.506;2023-02-01T09:22:55;98135.28;;;3.06;70.25
62402;BME280;48440;51.224;22.506;2023-02-01T09:25:20;98143.66;;;3.10;71.70
62402;BME280;48440;51.224;22.506;2023-02-01T09:27:46;98142.50;;;3.05;71.05
62402;BME280;48440;51.224;22.506;2023-02-01T09:30:11;98139.25;;;3.03;70.62
62402;BME280;48440;51.224;22.506;2023-02-01T09:32:40;98138.66;;;3.01;70.83
62402;BME280;48440;51.224;22.506;2023-02-01T09:35:06;98140.63;;;3.06;71.11
62402;BME280;48440;51.224;22.506;2023-02-01T09:37:31;98134.22;;;3.07;70.52
62402;BME280;48440;51.224;22.506;2023-02-01T09:39:58;98134.81;;;3.09;70.87
62402;BME280;48440;51.224;22.506;2023-02-01T09:47:23;98132.94;;;3.10;71.23
62402;BME280;48440;51.224;22.506;2023-02-01T09:50:08;98109.00;;;3.31;70.76
62402;BME280;48440;51.224;22.506;2023-02-01T09:55:48;98109.00;;;3.71;69.63
62402;BME280;48440;51.224;22.506;2023-02-01T10:00:51;98118.56;;;3.96;67.56
62402;BME280;48440;51.224;22.506;2023-02-01T10:03:17;98112.59;;;3.77;68.40
62402;BME280;48440;51.224;22.506;2023-02-01T10:08:19;98126.44;;;3.46;70.30
62402;BME280;48440;51.224;22.506;2023-02-01T10:10:52;98129.53;;;3.37;71.50
62402;BME280;48440;51.224;22.506;2023-02-01T10:21:58;98134.38;;;3.52;73.49
62402;BME280;48440;51.224;22.506;2023-02-01T10:29:41;98132.44;;;3.13;75.50
62402;BME280;48440;51.224;22.506;2023-02-01T10:32:21;98132.94;;;3.10;76.05
62402;BME280;48440;51.224;22.506;2023-02-01T10:35:13;98129.91;;;3.06;76.29
62402;BME280;48440;51.224;22.506;2023-02-01T10:37:41;98136.44;;;3.10;76.63
62402;BME280;48440;51.224;22.506;2023-02-01T10:40:21;98119.88;;;3.13;76.52
62402;BME280;48440;51.224;22.506;2023-02-01T10:42:49;98131.97;;;3.16;76.23
62402;BME280;48440;51.224;22.506;2023-02-01T10:45:21;98123.94;;;3.16;76.36
62402;BME280;48440;51.224;22.506;2023-02-01T10:47:49;98117.41;;;3.23;76.01
62402;BME280;48440;51.224;22.506;2023-02-01T10:52:59;98119.63;;;3.26;75.16
62402;BME280;48440;51.224;22.506;2023-02-01T10:55:35;98115.53;;;3.24;75.31
62402;BME280;48440;51.224;22.506;2023-02-01T10:58:04;98119.97;;;3.18;75.34
62402;BME280;48440;51.224;22.506;2023-02-01T11:01:00;98110.41;;;3.22;75.39
62402;BME280;48440;51.224;22.506;2023-02-01T11:03:45;98114.84;;;3.28;74.81
62402;BME280;48440;51.224;22.506;2023-02-01T11:06:32;98109.94;;;3.37;74.18
62402;BME280;48440;51.224;22.506;2023-02-01T11:11:52;98089.28;;;3.66;71.29
62402;BME280;48440;51.224;22.506;2023-02-01T11:16:55;98092.06;;;4.16;70.20
62402;BME280;48440;51.224;22.506;2023-02-01T11:19:21;98092.25;;;4.43;69.90
62402;BME280;48440;51.224;22.506;2023-02-01T11:21:52;98093.31;;;4.42;68.68
62402;BME280;48440;51.224;22.506;2023-02-01T11:24:24;98091.94;;;4.56;68.14
62402;BME280;48440;51.224;22.506;2023-02-01T11:26:55;98092.28;;;4.60;68.39
62402;BME280;48440;51.224;22.506;2023-02-01T11:29:22;98095.28;;;4.63;67.32
62402;BME280;48440;51.224;22.506;2023-02-01T11:31:56;98097.72;;;4.48;68.00
62402;BME280;48440;51.224;22.506;2023-02-01T11:34:26;98106.03;;;4.30;68.45
62402;BME280;48440;51.224;22.506;2023-02-01T11:36:55;98099.66;;;4.19;69.15
62402;BME280;48440;51.224;22.506;2023-02-01T11:39:29;98099.25;;;4.11;69.23
62402;BME280;48440;51.224;22.506;2023-02-01T11:42:17;98092.16;;;4.04;69.18
62402;BME280;48440;51.224;22.506;2023-02-01T11:44:44;98094.38;;;4.07;68.90
62402;BME280;48440;51.224;22.506;2023-02-01T11:47:38;98104.28;;;4.07;69.44
62402;BME280;48440;51.224;22.506;2023-02-01T11:50:14;98092.63;;;4.01;69.60
62402;BME280;48440;51.224;22.506;2023-02-01T12:04:05;98087.09;;;3.63;70.98
62402;BME280;48440;51.224;22.506;2023-02-01T12:06:54;98083.50;;;3.57;71.07
62402;BME280;48440;51.224;22.506;2023-02-01T12:12:36;98087.47;;;3.55;71.48
62402;BME280;48440;51.224;22.506;2023-02-01T12:21:04;98095.41;;;3.50;71.27
62402;BME280;48440;51.224;22.506;2023-02-01T12:42:52;98065.47;;;3.41;72.85
62402;BME280;48440;51.224;22.506;2023-02-01T12:45:34;98057.44;;;3.41;72.26
62402;BME280;48440;51.224;22.506;2023-02-01T12:50:54;98065.56;;;3.46;71.93
62402;BME280;48440;51.224;22.506;2023-02-01T12:56:11;98055.53;;;3.53;71.23
62402;BME280;48440;51.224;22.506;2023-02-01T12:58:40;98059.59;;;3.56;71.26
62402;BME280;48440;51.224;22.506;2023-02-01T13:01:20;98059.38;;;3.57;71.15
62402;BME280;48440;51.224;22.506;2023-02-01T13:06:22;98067.66;;;3.56;70.92
62402;BME280;48440;51.224;22.506;2023-02-01T13:11:39;98086.31;;;3.51;71.57
62402;BME280;48440;51.224;22.506;2023-02-01T13:16:44;98077.22;;;3.52;73.03
62402;BME280;48440;51.224;22.506;2023-02-01T13:19:41;98091.00;;;3.44;74.17
62402;BME280;48440;51.224;22.506;2023-02-01T13:22:14;98089.72;;;3.46;74.15
62402;BME280;48440;51.224;22.506;2023-02-01T13:24:48;98081.56;;;3.41;74.67
62402;BME280;48440;51.224;22.506;2023-02-01T13:27:16;98093.03;;;3.36;75.03
62402;BME280;48440;51.224;22.506;2023-02-01T13:30:19;98092.69;;;3.33;75.76
62402;BME280;48440;51.224;22.506;2023-02-01T13:33:00;98088.50;;;3.25;75.52
62402;BME280;48440;51.224;22.506;2023-02-01T13:38:38;98084.66;;;3.21;75.98
62402;BME280;48440;51.224;22.506;2023-02-01T13:41:25;98078.72;;;3.19;75.97
62402;BME280;48440;51.224;22.506;2023-02-01T13:43:57;98094.56;;;3.21;76.14
62402;BME280;48440;51.224;22.506;2023-02-01T13:46:24;98095.16;;;3.23;76.18
62402;BME280;48440;51.224;22.506;2023-02-01T13:48:53;98093.75;;;3.20;76.26
62402;BME280;48440;51.224;22.506;2023-02-01T13:51:34;98092.34;;;3.18;76.14
62402;BME280;48440;51.224;22.506;2023-02-01T13:54:00;98095.25;;;3.16;76.02
62402;BME280;48440;51.224;22.506;2023-02-01T13:56:26;98096.31;;;3.15;76.17
62402;BME280;48440;51.224;22.506;2023-02-01T13:58:52;98088.28;;;3.15;75.84
62402;BME280;48440;51.224;22.506;2023-02-01T14:03:57;98082.91;;;3.15;76.11
62402;BME280;48440;51.224;22.506;2023-02-01T14:11:37;98092.81;;;3.15;75.94
62402;BME280;48440;51.224;22.506;2023-02-01T14:16:41;98084.69;;;3.10;76.29
62402;BME280;48440;51.224;22.506;2023-02-01T14:19:30;98082.59;;;3.12;76.17
62402;BME280;48440;51.224;22.506;2023-02-01T14:24:54;98092.50;;;3.11;76.31
62402;BME280;48440;51.224;22.506;2023-02-01T14:27:24;98086.06;;;3.12;76.34
62402;BME280;48440;51.224;22.506;2023-02-01T14:29:56;98086.06;;;3.12;76.64
62402;BME280;48440;51.224;22.506;2023-02-01T14:32:30;98091.41;;;3.12;76.74
62402;BME280;48440;51.224;22.506;2023-02-01T14:35:00;98086.56;;;3.09;76.45
62402;BME280;48440;51.224;22.506;2023-02-01T14:37:37;98086.56;;;3.09;76.58
62402;BME280;48440;51.224;22.506;2023-02-01T14:40:04;98081.50;;;3.13;76.75
62402;BME280;48440;51.224;22.506;2023-02-01T14:42:49;98072.66;;;3.12;75.96
62402;BME280;48440;51.224;22.506;2023-02-01T14:47:54;98075.91;;;3.14;75.96
62402;BME280;48440;51.224;22.506;2023-02-01T14:58:56;98076.66;;;3.10;75.38
62402;BME280;48440;51.224;22.506;2023-02-01T15:01:35;98077.47;;;3.10;74.89
62402;BME280;48440;51.224;22.506;2023-02-01T15:04:15;98068.03;;;3.08;74.98
62402;BME280;48440;51.224;22.506;2023-02-01T15:06:49;98076.06;;;3.08;75.19
62402;BME280;48440;51.224;22.506;2023-02-01T15:14:31;98086.78;;;3.08;75.25
62402;BME280;48440;51.224;22.506;2023-02-01T15:16:57;98074.22;;;3.08;75.38
62402;BME280;48440;51.224;22.506;2023-02-01T15:19:25;98078.75;;;3.08;75.38
62402;BME280;48440;51.224;22.506;2023-02-01T15:21:53;98081.66;;;3.06;75.62
62402;BME280;48440;51.224;22.506;2023-02-01T15:24:22;98078.97;;;3.06;75.90
62402;BME280;48440;51.224;22.506;2023-02-01T15:26:48;98089.72;;;3.06;75.64
62402;BME280;48440;51.224;22.506;2023-02-01T15:29:15;98082.47;;;3.06;75.86
62402;BME280;48440;51.224;22.506;2023-02-01T15:31:43;98090.19;;;3.03;76.06
62402;BME280;48440;51.224;22.506;2023-02-01T15:34:10;98095.88;;;3.06;75.90
62402;BME280;48440;51.224;22.506;2023-02-01T15:36:36;98101.59;;;3.10;75.89
62402;BME280;48440;51.224;22.506;2023-02-01T15:41:51;98098.78;;;3.05;76.31
62402;BME280;48440;51.224;22.506;2023-02-01T15:44:38;98096.69;;;3.07;76.10